createdAt,value
2019-04-21T00:02:21.972Z,8.66
2019-04-21T00:07:42.344Z,8.53
2019-04-21T00:12:49.002Z,8.53
2019-04-21T00:17:38.973Z,8.33
2019-04-21T00:22:58.662Z,8.47
2019-04-21T00:28:14.039Z,8.11
2019-04-21T00:33:11.445Z,8.21
2019-04-21T00:38:27.484Z,8.21
2019-04-21T00:43:35.387Z,7.83
2019-04-21T00:48:45.119Z,7.70
2019-04-21T00:54:06.926Z,7.74
2019-04-21T00:59:11.768Z,7.84
2019-04-21T01:04:09.487Z,7.84
2019-04-21T01:09:16.516Z,7.95
2019-04-21T01:14:34.794Z,7.56
2019-04-21T01:19:33.235Z,7.56
2019-04-21T01:24:28.903Z,7.50
2019-04-21T01:29:45.991Z,7.42
2019-04-21T01:35:00.752Z,7.44
2019-04-21T01:40:13.965Z,7.34
2019-04-21T01:45:11.374Z,7.43
2019-04-21T01:50:20.000Z,7.14
2019-04-21T01:55:36.856Z,7.15
2019-04-21T02:00:46.981Z,6.91
2019-04-21T02:05:59.266Z,6.86
2019-04-21T02:11:07.544Z,6.95
2019-04-21T02:16:11.320Z,6.65
2019-04-21T02:21:04.396Z,6.89
2019-04-21T02:26:32.035Z,6.94
2019-04-21T02:42:02.085Z,6.78
2019-04-21T02:46:54.806Z,6.83
2019-04-21T03:02:40.866Z,6.57
2019-04-21T03:07:46.515Z,6.22
2019-04-21T03:12:47.811Z,6.76
2019-04-21T03:18:04.921Z,6.51
2019-04-21T03:23:16.189Z,6.63
2019-04-21T03:28:16.313Z,6.31
2019-04-21T03:34:05.745Z,6.12
2019-04-21T03:38:31.368Z,6.00
2019-04-21T03:43:40.025Z,6.01
2019-04-21T03:48:40.684Z,5.94
2019-04-21T03:53:49.801Z,5.97
2019-04-21T03:59:01.948Z,6.16
2019-04-21T04:04:26.374Z,6.39
2019-04-21T04:09:27.253Z,6.64
2019-04-21T04:14:34.359Z,6.23
2019-04-21T04:29:51.497Z,6.57
2019-04-21T04:35:04.023Z,6.54
2019-04-21T04:45:28.240Z,6.78
2019-04-21T04:50:35.910Z,6.92
2019-04-21T04:55:33.879Z,7.05
2019-04-21T05:06:37.510Z,7.42
2019-04-21T05:26:39.083Z,8.41
2019-04-21T05:32:04.997Z,8.31
2019-04-21T05:37:18.721Z,8.28
2019-04-21T05:42:17.046Z,8.66
2019-04-21T05:47:39.802Z,9.81
2019-04-21T05:52:52.000Z,9.81
2019-04-21T05:58:02.519Z,9.86
2019-04-21T06:08:17.924Z,10.41
2019-04-21T06:18:44.917Z,10.78
2019-04-21T06:23:42.015Z,10.78
2019-04-21T06:29:04.232Z,10.99
2019-04-21T06:33:57.595Z,10.97
2019-04-21T06:39:10.249Z,11.20
2019-04-21T06:44:12.923Z,11.72
2019-04-21T06:49:13.356Z,12.11
2019-04-21T06:54:29.163Z,12.57
2019-04-21T06:59:34.204Z,12.78
2019-04-21T07:04:46.936Z,13.00
2019-04-21T07:09:53.119Z,12.99
2019-04-21T07:14:58.917Z,13.04
2019-04-21T07:20:20.386Z,13.13
2019-04-21T07:25:30.553Z,13.78
2019-04-21T07:30:20.762Z,14.23
2019-04-21T07:35:24.916Z,14.55
2019-04-21T07:40:27.469Z,14.79
2019-04-21T07:45:39.119Z,14.81
2019-04-21T07:51:07.546Z,14.88
2019-04-21T07:55:59.433Z,15.30
2019-04-21T08:01:28.832Z,15.68
2019-04-21T08:06:33.630Z,15.50
2019-04-21T08:11:32.697Z,15.70
2019-04-21T08:16:49.803Z,15.71
2019-04-21T08:22:01.060Z,15.68
2019-04-21T08:27:00.128Z,16.05
2019-04-21T08:32:11.006Z,16.17
2019-04-21T08:37:12.357Z,16.23
2019-04-21T08:42:18.515Z,16.49
2019-04-21T08:47:33.956Z,16.58
2019-04-21T08:58:00.132Z,16.85
2019-04-21T09:03:01.826Z,16.77
2019-04-21T09:08:10.720Z,16.87
2019-04-21T09:13:14.915Z,17.08
2019-04-21T09:18:18.897Z,17.08
2019-04-21T09:23:25.568Z,17.37
2019-04-21T09:28:35.482Z,17.13
2019-04-21T09:33:33.475Z,17.88
2019-04-21T09:38:38.302Z,17.56
2019-04-21T09:43:47.385Z,17.48
2019-04-21T09:48:56.800Z,18.19
2019-04-21T09:54:04.419Z,17.73
2019-04-21T09:59:15.178Z,17.76
2019-04-21T10:04:12.123Z,18.14
2019-04-21T10:09:21.346Z,18.18
2019-04-21T10:14:26.481Z,18.60
2019-04-21T10:19:32.366Z,18.39
2019-04-21T10:24:38.374Z,18.26
2019-04-21T10:29:45.397Z,18.44
2019-04-21T10:34:52.762Z,18.68
2019-04-21T10:40:00.012Z,18.50
2019-04-21T10:45:07.654Z,18.36
2019-04-21T10:50:13.766Z,18.23
2019-04-21T10:55:36.549Z,18.14
2019-04-21T11:00:28.132Z,17.92
2019-04-21T11:05:34.524Z,19.07
2019-04-21T11:10:41.304Z,18.82
2019-04-21T11:15:47.555Z,19.12
2019-04-21T11:20:53.478Z,19.17
2019-04-21T11:26:00.132Z,19.50
2019-04-21T11:31:07.031Z,19.21
2019-04-21T11:36:13.424Z,19.33
2019-04-21T11:41:19.910Z,19.47
2019-04-21T11:46:26.760Z,19.19
2019-04-21T11:51:33.348Z,19.52
2019-04-21T11:56:39.269Z,19.63
2019-04-21T12:01:45.684Z,20.06
2019-04-21T12:06:53.994Z,19.88
2019-04-21T12:11:59.246Z,20.03
2019-04-21T12:17:05.797Z,19.56
2019-04-21T12:22:21.134Z,20.16
2019-04-21T12:27:20.358Z,19.96
2019-04-21T12:32:34.087Z,19.95
2019-04-21T12:37:40.656Z,19.48
2019-04-21T12:42:46.478Z,19.92
2019-04-21T12:47:53.774Z,19.77
2019-04-21T12:52:59.944Z,20.13
2019-04-21T12:58:06.026Z,20.69
2019-04-21T13:03:11.974Z,20.02
2019-04-21T13:08:17.845Z,20.38
2019-04-21T13:13:24.073Z,20.42
2019-04-21T13:18:31.179Z,20.26
2019-04-21T13:23:37.171Z,20.85
2019-04-21T13:28:43.001Z,20.68
2019-04-21T13:33:50.090Z,20.53
2019-04-21T13:39:44.386Z,20.50
2019-04-21T13:44:21.598Z,20.70
2019-04-21T13:49:27.473Z,20.72
2019-04-21T13:54:33.859Z,21.16
2019-04-21T13:59:40.368Z,20.92
2019-04-21T14:04:47.405Z,21.52
2019-04-21T14:09:59.469Z,20.57
2019-04-21T14:15:02.280Z,20.70
2019-04-21T14:20:10.927Z,20.70
2019-04-21T14:25:17.976Z,20.88
2019-04-21T14:30:26.181Z,21.01
2019-04-21T14:35:34.810Z,21.07
2019-04-21T14:40:42.068Z,20.84
2019-04-21T14:45:56.745Z,20.95
2019-04-21T14:51:07.109Z,20.73
2019-04-21T14:56:13.306Z,20.41
2019-04-21T15:01:19.879Z,21.11
2019-04-21T15:06:27.135Z,21.00
2019-04-21T15:11:33.816Z,20.80
2019-04-21T15:16:40.864Z,21.00
2019-04-21T15:21:48.112Z,20.72
2019-04-21T15:26:54.775Z,20.76
2019-04-21T15:32:00.936Z,20.97
2019-04-21T15:37:08.058Z,21.00
2019-04-21T15:42:15.142Z,20.85
2019-04-21T15:47:22.255Z,20.89
2019-04-21T15:52:30.008Z,20.89
2019-04-21T15:57:37.796Z,21.06
2019-04-21T16:02:46.564Z,21.29
2019-04-21T16:07:54.099Z,21.38
2019-04-21T16:13:01.465Z,22.22
2019-04-21T16:18:09.985Z,22.49
2019-04-21T16:23:15.998Z,22.68
2019-04-21T16:28:21.806Z,22.99
2019-04-21T16:33:29.179Z,23.78
2019-04-21T16:38:35.518Z,23.65
2019-04-21T16:43:42.971Z,24.03
2019-04-21T16:48:49.582Z,22.17
2019-04-21T16:53:57.779Z,21.41
2019-04-21T16:59:06.408Z,20.21
2019-04-21T17:04:12.770Z,20.28
2019-04-21T17:09:18.847Z,19.84
2019-04-21T17:14:48.191Z,19.64
2019-04-21T17:19:39.835Z,19.65
2019-04-21T17:24:40.299Z,19.25
2019-04-21T17:29:48.511Z,19.11
2019-04-21T17:34:54.486Z,18.74
2019-04-21T17:40:03.502Z,18.68
2019-04-21T17:45:10.856Z,18.59
2019-04-21T17:50:20.697Z,18.36
2019-04-21T17:55:34.925Z,17.63
2019-04-21T18:01:10.879Z,17.50
2019-04-21T18:06:02.382Z,17.03
2019-04-21T18:11:08.781Z,16.96
2019-04-21T18:16:15.865Z,17.02
2019-04-21T18:21:22.807Z,16.66
2019-04-21T18:26:42.920Z,16.35
2019-04-21T18:31:44.866Z,16.18
2019-04-21T18:36:49.950Z,16.05
2019-04-21T18:42:17.471Z,15.94
2019-04-21T18:47:32.000Z,15.62
2019-04-21T18:52:32.110Z,15.55
2019-04-21T18:57:38.086Z,15.45
2019-04-21T19:02:45.338Z,15.19
2019-04-21T19:08:03.184Z,15.29
2019-04-21T19:23:33.975Z,14.87
2019-04-21T19:28:36.166Z,14.87
2019-04-21T19:33:34.707Z,14.65
2019-04-21T19:38:44.449Z,14.51
2019-04-21T19:43:57.557Z,14.47
2019-04-21T19:49:10.939Z,14.38
2019-04-21T19:54:02.133Z,13.99
2019-04-21T19:59:01.298Z,13.68
2019-04-21T20:04:10.525Z,13.70
2019-04-21T20:09:32.179Z,13.39
2019-04-21T20:19:32.165Z,12.93
2019-04-21T20:24:39.646Z,12.64
2019-04-21T20:30:02.333Z,12.64
2019-04-21T20:35:17.008Z,12.47
2019-04-21T20:40:11.501Z,12.25
2019-04-21T20:50:33.715Z,11.93
2019-04-21T20:55:43.335Z,11.83
2019-04-21T21:00:55.726Z,11.75
2019-04-21T21:05:52.983Z,11.55
2019-04-21T21:11:02.366Z,11.38
2019-04-21T21:21:20.676Z,11.19
2019-04-21T21:26:44.098Z,11.02
2019-04-21T21:31:40.074Z,10.96
2019-04-21T21:36:43.175Z,10.91
2019-04-21T21:41:40.590Z,10.87
2019-04-21T21:46:53.871Z,10.66
2019-04-21T21:51:59.198Z,10.72
2019-04-21T21:56:56.412Z,10.49
2019-04-21T22:02:03.553Z,10.33
2019-04-21T22:07:14.765Z,10.33
2019-04-21T22:12:18.149Z,10.28
2019-04-21T22:17:41.611Z,10.13
2019-04-21T22:22:43.875Z,10.10
2019-04-21T22:27:39.134Z,10.00
2019-04-21T22:32:53.963Z,9.90
2019-04-21T22:38:11.817Z,9.86
2019-04-21T22:43:11.624Z,9.69
2019-04-21T22:48:14.421Z,9.66
2019-04-21T22:53:17.433Z,9.52
2019-04-21T22:58:29.303Z,9.60
2019-04-21T23:03:32.529Z,9.60
2019-04-21T23:08:42.019Z,9.37
2019-04-21T23:13:55.306Z,9.27
2019-04-21T23:19:11.015Z,9.63
2019-04-21T23:24:28.252Z,9.45
2019-04-21T23:29:41.230Z,9.27
2019-04-21T23:34:21.961Z,9.09
2019-04-21T23:39:28.982Z,8.99
2019-04-21T23:44:33.859Z,8.78
2019-04-21T23:49:49.487Z,8.72
2019-04-21T23:54:47.237Z,8.86
2019-04-21T23:59:57.034Z,8.86
